Skip Navigation Links Skip Navigation Links

Current Weather

Stafford Regional, Stafford, Va.

For information only: do not use for flight planning or navigation.
Latest weather
Observation time Sunday, August 1, 2021 5:35 AM EDT
Local time Sunday, August 1, 2021 6:03 AM EDT
Flight conditions Marginal Visual Meteorological Conditions
Winds
Wind direction South-Southeast (150°)
Wind speed 3 mph
Visibility 7 mi.
Sky condition
Ceiling 1,400 ft. broken clouds
Cloud layer scattered clouds 900 ft.
Cloud layer broken clouds 1,400 ft.
Cloud layer overcast 8,500 ft.
Temperature 71°F
Dewpoint 68°F
Altimeter 29.93 in.Hg
Derived measurements
Relative humidity 91%
Density altitude 1315 ft.
Remarks
Fully automated report.
Automated weather observing station with precipitation discriminator.
METAR KRMN 010935Z AUTO 15003KT 7SM SCT009 BKN014 OVC085 22/20 A2993 RMK AO2 T02180202

Settings

Location code

InnerDrive.Weather 4.0.6770.0 Release CLR 4.0.30319.42000
Copyright ©2018 Inner Drive Technology. All rights reserved. Portions Copyright ©1986-2018 David Braverman.

Find weather

Site navigation


Skip Navigation Links

Place info

Page info

PayPal - The safer, easier way to pay online!

Return home.

Copyright ©2021 Inner Drive Technology. Purveyors of fine, hand-crafted computer software. Page printed 2021-08-01T10:03:11 UTC.